createdAt,value
2022-08-12T00:00:10.823Z,101280.19
2022-08-12T00:02:57.020Z,101279.31
2022-08-12T00:06:04.360Z,101280.19
2022-08-12T00:08:49.472Z,101275.88
2022-08-12T00:11:35.495Z,101287.25
2022-08-12T00:14:21.078Z,101291.66
2022-08-12T00:17:06.554Z,101285.63
2022-08-12T00:19:52.302Z,101293.59
2022-08-12T00:22:38.127Z,101306.78
2022-08-12T00:26:05.597Z,101299.84
2022-08-12T00:28:29.173Z,101299.06
2022-08-12T00:31:14.777Z,101304.41
2022-08-12T00:34:00.571Z,101311.41
2022-08-12T00:36:57.400Z,101294.81
2022-08-12T00:40:02.005Z,101301.81
2022-08-12T00:42:50.597Z,101301.84
2022-08-12T00:45:35.916Z,101302.75
2022-08-12T00:48:21.003Z,101279.25
2022-08-12T00:51:08.106Z,101300.25
2022-08-12T00:53:53.481Z,101296.81
2022-08-12T00:56:39.548Z,101294.22
2022-08-12T00:59:24.801Z,101306.44
2022-08-12T01:02:13.010Z,101305.56
2022-08-12T01:04:59.335Z,101309.97
2022-08-12T01:07:46.174Z,101297.75
2022-08-12T01:10:36.269Z,101305.66
2022-08-12T01:13:22.618Z,101299.59
2022-08-12T01:16:09.306Z,101288.28
2022-08-12T01:18:57.371Z,101301.38
2022-08-12T01:22:03.845Z,101292.66
2022-08-12T01:25:05.622Z,101297.06
2022-08-12T01:27:52.087Z,101298.84
2022-08-12T01:30:40.903Z,101298.00
2022-08-12T01:33:30.754Z,101295.38
2022-08-12T01:36:18.934Z,101293.66
2022-08-12T01:39:04.461Z,101280.56
2022-08-12T01:41:57.256Z,101275.31
2022-08-12T01:44:43.991Z,101292.78
2022-08-12T01:47:48.508Z,101295.44
2022-08-12T01:51:01.313Z,101289.38
2022-08-12T01:54:01.780Z,101294.66
2022-08-12T01:56:58.992Z,101291.16
2022-08-12T02:00:12.276Z,101299.03
2022-08-12T02:03:12.391Z,101288.56
2022-08-12T02:06:13.561Z,101292.94
2022-08-12T02:09:01.255Z,101292.94
2022-08-12T02:11:56.801Z,101286.84
2022-08-12T02:15:10.723Z,101290.31
2022-08-12T02:18:12.415Z,101284.19
2022-08-12T02:21:27.326Z,101296.41
2022-08-12T02:24:19.844Z,101300.81
2022-08-12T02:27:06.915Z,101302.56
2022-08-12T02:29:51.982Z,101299.09
2022-08-12T02:32:42.343Z,101295.63
2022-08-12T02:35:33.257Z,101299.09
2022-08-12T02:38:20.610Z,101303.44
2022-08-12T02:41:07.588Z,101313.91
2022-08-12T02:43:58.582Z,101296.50
2022-08-12T02:46:48.417Z,101305.22
2022-08-12T02:49:37.857Z,101301.72
2022-08-12T02:52:23.860Z,101291.25
2022-08-12T02:55:28.439Z,101294.75
2022-08-12T02:58:20.840Z,101294.75
2022-08-12T03:01:24.277Z,101293.00
2022-08-12T03:04:20.176Z,101293.00
2022-08-12T03:07:20.102Z,101296.50
2022-08-12T03:10:14.611Z,101298.25
2022-08-12T03:13:02.887Z,101302.59
2022-08-12T03:15:48.873Z,101302.63
2022-08-12T03:18:34.185Z,101302.63
2022-08-12T03:21:55.462Z,101313.94
2022-08-12T03:24:26.472Z,101310.44
2022-08-12T03:27:13.428Z,101302.59
2022-08-12T03:29:59.140Z,101300.88
2022-08-12T03:32:48.965Z,101301.72
2022-08-12T03:35:40.605Z,101306.06
2022-08-12T03:38:29.456Z,101296.44
2022-08-12T03:41:19.048Z,101306.03
2022-08-12T03:44:15.748Z,101299.91
2022-08-12T03:47:33.430Z,101299.03
2022-08-12T03:50:19.670Z,101305.13
2022-08-12T03:53:07.585Z,101305.16
2022-08-12T03:55:53.582Z,101290.34
2022-08-12T03:58:39.549Z,101296.47
2022-08-12T04:01:25.722Z,101300.78
2022-08-12T04:04:13.364Z,101310.38
2022-08-12T04:06:58.590Z,101306.00
2022-08-12T04:09:46.107Z,101302.53
2022-08-12T04:12:32.870Z,101310.34
2022-08-12T04:15:22.382Z,101307.72
2022-08-12T04:18:08.116Z,101306.88
2022-08-12T04:20:54.979Z,101300.78
2022-08-12T04:23:43.918Z,101299.91
2022-08-12T04:26:33.234Z,101309.53
2022-08-12T04:29:23.248Z,101299.94
2022-08-12T04:32:28.549Z,101300.78
2022-08-12T04:35:14.023Z,101303.38
2022-08-12T04:38:01.032Z,101307.75
2022-08-12T04:40:46.997Z,101317.31
2022-08-12T04:44:01.070Z,101316.44
2022-08-12T04:46:37.582Z,101312.97
2022-08-12T04:49:23.801Z,101302.53
2022-08-12T04:52:09.669Z,101292.94
2022-08-12T04:54:55.218Z,101313.88
2022-08-12T04:57:40.606Z,101324.34
2022-08-12T05:00:26.155Z,101321.72
2022-08-12T05:03:11.154Z,101316.53
2022-08-12T05:05:56.652Z,101319.16
2022-08-12T05:08:41.897Z,101320.00
2022-08-12T05:11:27.586Z,101313.94
2022-08-12T05:14:13.443Z,101322.66
2022-08-12T05:16:59.948Z,101320.03
2022-08-12T05:19:45.461Z,101309.56
2022-08-12T05:22:31.356Z,101316.53
2022-08-12T05:25:22.236Z,101306.94
2022-08-12T05:28:07.475Z,101320.03
2022-08-12T05:30:53.413Z,101322.63
2022-08-12T05:33:38.755Z,101328.69
2022-08-12T05:36:24.132Z,101322.59
2022-08-12T05:39:09.168Z,101320.84
2022-08-12T05:41:54.610Z,101331.28
2022-08-12T05:44:39.741Z,101328.63
2022-08-12T05:47:38.493Z,101318.13
2022-08-12T05:50:30.464Z,101319.81
2022-08-12T05:53:15.754Z,101318.88
2022-08-12T05:56:01.313Z,101331.06
2022-08-12T05:58:48.336Z,101315.28
2022-08-12T06:02:10.938Z,101302.13
2022-08-12T06:04:39.294Z,101293.34
2022-08-12T06:08:00.630Z,101267.09
2022-08-12T06:10:32.506Z,101271.31
2022-08-12T06:13:28.588Z,101262.47
2022-08-12T06:16:24.580Z,101227.41
2022-08-12T06:19:10.204Z,101234.25
2022-08-12T06:21:55.514Z,101235.00
2022-08-12T06:24:40.845Z,101226.97
2022-08-12T06:27:26.307Z,101245.19
2022-08-12T06:30:16.301Z,101223.16
2022-08-12T06:33:22.528Z,101218.56
2022-08-12T06:36:11.401Z,101207.81
2022-08-12T06:38:57.093Z,101215.50
2022-08-12T06:42:05.081Z,101219.75
2022-08-12T06:44:48.444Z,101225.66
2022-08-12T06:47:44.286Z,101207.88
2022-08-12T06:50:29.700Z,101201.47
2022-08-12T06:53:16.384Z,101211.75
2022-08-12T06:56:01.796Z,101201.66
2022-08-12T06:58:47.163Z,101209.19
2022-08-12T07:01:32.440Z,101205.25
2022-08-12T07:04:35.851Z,101226.78
2022-08-12T07:07:22.502Z,101235.09
2022-08-12T07:13:11.009Z,101209.53
2022-08-12T07:15:56.155Z,101213.25
2022-08-12T07:18:43.022Z,101194.06
2022-08-12T07:22:00.176Z,101202.06
2022-08-12T07:24:33.539Z,101204.44
2022-08-12T07:27:18.824Z,101193.78
2022-08-12T07:30:05.409Z,101214.38
2022-08-12T07:32:50.884Z,101181.28
2022-08-12T07:35:38.753Z,101192.53
2022-08-12T07:38:31.217Z,101183.53
2022-08-12T07:41:18.437Z,101179.41
2022-08-12T07:44:07.113Z,101170.84
2022-08-12T07:46:52.471Z,101178.16
2022-08-12T07:50:05.720Z,101180.41
2022-08-12T07:52:45.425Z,101193.69
2022-08-12T07:55:30.597Z,101196.34
2022-08-12T07:58:15.527Z,101213.94
2022-08-12T08:01:01.058Z,101235.16
2022-08-12T08:03:52.011Z,101223.88
2022-08-12T08:06:39.416Z,101192.69
2022-08-12T08:09:24.787Z,101176.06
2022-08-12T08:12:09.807Z,101227.44
2022-08-12T08:15:04.847Z,101235.47
2022-08-12T08:18:03.788Z,101194.22
2022-08-12T08:20:48.977Z,101185.09
2022-08-12T08:23:37.152Z,101175.03
2022-08-12T08:26:22.242Z,101194.06
2022-08-12T08:29:07.372Z,101200.66
2022-08-12T08:31:53.871Z,101174.94
2022-08-12T08:34:54.834Z,101219.72
2022-08-12T08:37:40.157Z,101172.66
2022-08-12T08:40:26.629Z,101206.09
2022-08-12T08:43:11.779Z,101176.19
2022-08-12T08:45:57.751Z,101182.41
2022-08-12T08:48:42.958Z,101171.69
2022-08-12T08:51:28.385Z,101177.34
2022-08-12T08:54:13.830Z,101206.53
2022-08-12T08:57:00.442Z,101193.31
2022-08-12T08:59:45.462Z,101182.69
2022-08-12T09:02:37.376Z,101198.72
2022-08-12T09:05:25.824Z,101219.00
2022-08-12T09:08:15.428Z,101196.13
2022-08-12T09:11:07.708Z,101163.66
2022-08-12T09:14:11.311Z,101178.22
2022-08-12T09:16:58.182Z,101184.88
2022-08-12T09:19:43.452Z,101191.09
2022-08-12T09:22:43.229Z,101180.84
2022-08-12T09:25:34.019Z,101181.28
2022-08-12T09:32:02.913Z,101164.97
2022-08-12T09:34:37.801Z,101147.06
2022-08-12T09:37:28.384Z,101148.06
2022-08-12T09:40:57.167Z,101194.13
2022-08-12T09:43:53.437Z,101202.00
2022-08-12T09:46:39.272Z,101173.13
2022-08-12T09:49:25.301Z,101205.00
2022-08-12T09:52:10.457Z,101157.19
2022-08-12T09:54:59.803Z,101139.00
2022-08-12T09:58:47.064Z,101167.66
2022-08-12T10:00:53.837Z,101141.00
2022-08-12T10:03:55.674Z,101149.66
2022-08-12T10:06:53.999Z,101164.31
2022-08-12T10:09:58.529Z,101149.88
2022-08-12T10:13:07.081Z,101146.91
2022-08-12T10:16:02.123Z,101127.00
2022-08-12T10:18:55.882Z,101128.69
2022-08-12T10:21:41.669Z,101139.66
2022-08-12T10:24:27.396Z,101137.75
2022-08-12T10:27:14.377Z,101135.44
2022-08-12T10:30:37.025Z,101161.22
2022-08-12T10:33:19.045Z,101138.44
2022-08-12T10:36:11.637Z,101116.16
2022-08-12T10:38:56.658Z,101108.09
2022-08-12T10:41:57.855Z,101100.56
2022-08-12T10:44:44.158Z,101100.66
2022-08-12T10:48:14.977Z,101099.63
2022-08-12T10:51:01.857Z,101117.41
2022-08-12T10:53:46.634Z,101113.41
2022-08-12T10:56:34.741Z,101128.69
2022-08-12T10:59:20.429Z,101086.31
2022-08-12T11:04:25.040Z,101099.09
2022-08-12T11:07:05.540Z,101088.47
2022-08-12T11:08:43.517Z,101153.91
2022-08-12T11:12:35.967Z,101089.94
2022-08-12T11:14:49.055Z,101075.00
2022-08-12T11:17:52.655Z,101089.03
2022-08-12T11:20:39.703Z,101057.94
2022-08-12T11:23:37.004Z,101061.69
2022-08-12T11:26:22.605Z,101056.84
2022-08-12T11:29:22.663Z,101100.97
2022-08-12T11:32:08.267Z,101078.59
2022-08-12T11:34:55.301Z,101077.13
2022-08-12T11:37:59.047Z,101082.03
2022-08-12T11:40:45.096Z,101071.69
2022-08-12T11:43:30.850Z,101066.69
2022-08-12T11:46:18.559Z,101052.41
2022-08-12T11:49:05.249Z,101070.56
2022-08-12T11:51:57.571Z,101042.13
2022-08-12T11:54:43.181Z,101063.13
2022-08-12T11:58:07.028Z,101044.69
2022-08-12T12:04:01.208Z,101073.63
2022-08-12T12:06:52.968Z,101096.28
2022-08-12T12:09:53.028Z,101069.25
2022-08-12T12:12:38.674Z,101062.88
2022-08-12T12:15:40.786Z,101069.72
2022-08-12T12:18:30.871Z,101046.75
2022-08-12T12:21:16.305Z,101049.88
2022-08-12T12:24:01.739Z,101062.94
2022-08-12T12:26:47.143Z,101028.47
2022-08-12T12:30:19.886Z,101026.06
2022-08-12T12:32:53.327Z,101029.97
2022-08-12T12:36:18.211Z,101007.34
2022-08-12T12:38:45.548Z,101037.19
2022-08-12T12:42:44.079Z,101036.94
2022-08-12T12:44:38.657Z,101024.91
2022-08-12T12:47:29.105Z,101013.34
2022-08-12T12:50:35.619Z,101010.00
2022-08-12T12:54:06.067Z,100999.84
2022-08-12T12:56:33.869Z,101022.84
2022-08-12T12:59:54.528Z,100984.94
2022-08-12T13:02:31.660Z,100974.72
2022-08-12T13:05:17.688Z,101002.59
2022-08-12T13:08:35.628Z,100959.44
2022-08-12T13:11:21.544Z,100986.78
2022-08-12T13:14:28.671Z,100978.94
2022-08-12T13:17:17.852Z,100977.44
2022-08-12T13:20:05.578Z,100958.75
2022-08-12T13:22:51.048Z,100976.91
2022-08-12T13:25:39.029Z,100981.66
2022-08-12T13:28:28.415Z,100968.34
2022-08-12T13:31:14.354Z,100955.13
2022-08-12T13:34:33.387Z,100954.03
2022-08-12T13:37:09.765Z,100943.31
2022-08-12T13:39:55.136Z,100939.47
2022-08-12T13:42:40.591Z,100948.72
2022-08-12T13:45:29.080Z,100944.63
2022-08-12T13:48:14.478Z,100927.75
2022-08-12T13:51:04.920Z,100939.16
2022-08-12T13:53:58.344Z,100924.13
2022-08-12T13:56:50.200Z,100928.91
2022-08-12T13:59:48.046Z,100916.53
2022-08-12T14:02:33.925Z,100917.78
2022-08-12T14:05:31.017Z,100923.25
2022-08-12T14:08:24.091Z,100904.97
2022-08-12T14:11:12.425Z,100899.06
2022-08-12T14:14:03.575Z,100901.75
2022-08-12T14:16:56.319Z,100904.72
2022-08-12T14:19:51.301Z,100899.94
2022-08-12T14:22:39.717Z,100901.44
2022-08-12T14:25:35.705Z,100916.31
2022-08-12T14:28:21.840Z,100910.34
2022-08-12T14:31:16.575Z,100904.44
2022-08-12T14:34:05.139Z,100902.97
2022-08-12T14:36:50.459Z,100916.66
2022-08-12T14:39:35.354Z,100913.25
2022-08-12T14:42:26.055Z,100887.50
2022-08-12T14:45:12.637Z,100875.53
2022-08-12T14:47:58.631Z,100892.53
2022-08-12T14:51:02.736Z,100902.72
2022-08-12T14:54:52.883Z,100890.75
2022-08-12T14:57:19.826Z,100891.91
2022-08-12T15:00:02.750Z,100895.34
2022-08-12T15:02:48.189Z,100893.09
2022-08-12T15:06:05.968Z,100895.84
2022-08-12T15:08:42.404Z,100890.16
2022-08-12T15:11:27.991Z,100886.50
2022-08-12T15:14:35.286Z,100879.81
2022-08-12T15:17:38.379Z,100888.38
2022-08-12T15:20:33.221Z,100889.44
2022-08-12T15:23:32.962Z,100910.63
2022-08-12T15:26:35.705Z,100892.78
2022-08-12T15:29:23.190Z,100883.75
2022-08-12T15:32:15.811Z,100909.16
2022-08-12T15:35:01.332Z,100904.50
2022-08-12T15:38:10.016Z,100915.78
2022-08-12T15:40:56.823Z,100901.34
2022-08-12T15:44:15.837Z,100956.56
2022-08-12T15:46:49.477Z,100918.06
2022-08-12T15:49:54.402Z,100892.22
2022-08-12T15:52:40.053Z,100891.91
2022-08-12T15:55:26.368Z,100878.75
2022-08-12T15:58:18.841Z,100890.97
2022-08-12T16:01:12.287Z,100876.81
2022-08-12T16:03:59.335Z,100889.38
2022-08-12T16:07:05.486Z,100888.41
2022-08-12T16:10:05.168Z,100885.16
2022-08-12T16:12:55.595Z,100892.63
2022-08-12T16:15:42.338Z,100875.19
2022-08-12T16:18:37.154Z,100882.50
2022-08-12T16:21:52.243Z,100865.56
2022-08-12T16:24:27.246Z,100866.78
2022-08-12T16:27:12.061Z,100867.69
2022-08-12T16:29:57.661Z,100867.16
2022-08-12T16:32:46.442Z,100856.19
2022-08-12T16:35:40.545Z,100854.56
2022-08-12T16:38:29.030Z,100853.81
2022-08-12T16:41:14.130Z,100847.59
2022-08-12T16:43:59.918Z,100854.28
2022-08-12T16:46:57.881Z,100842.06
2022-08-12T16:49:43.768Z,100853.31
2022-08-12T16:52:29.457Z,100856.56
2022-08-12T16:55:15.212Z,100849.59
2022-08-12T16:58:00.992Z,100845.91
2022-08-12T17:00:48.305Z,100845.97
2022-08-12T17:03:36.577Z,100834.44
2022-08-12T17:06:22.684Z,100843.59
2022-08-12T17:09:17.114Z,100851.41
2022-08-12T17:12:04.319Z,100866.19
2022-08-12T17:14:53.006Z,100870.75
2022-08-12T17:17:39.822Z,100881.66
2022-08-12T17:20:33.995Z,100877.50
2022-08-12T17:23:24.099Z,100866.81
2022-08-12T17:26:09.657Z,100850.25
2022-08-12T17:28:58.613Z,100862.16
2022-08-12T17:32:01.692Z,100849.88
2022-08-12T17:34:49.421Z,100857.03
2022-08-12T17:37:35.384Z,100863.31
2022-08-12T17:40:34.781Z,100871.06
2022-08-12T17:43:51.894Z,100856.53
2022-08-12T17:46:33.408Z,100878.91
2022-08-12T17:50:01.462Z,100861.16
2022-08-12T17:52:23.824Z,100874.97
2022-08-12T17:55:43.483Z,100866.63
2022-08-12T17:58:35.809Z,100878.56
2022-08-12T18:01:24.173Z,100891.88
2022-08-12T18:04:22.170Z,100924.34
2022-08-12T18:07:13.529Z,100886.88
2022-08-12T18:10:00.030Z,100909.97
2022-08-12T18:12:50.932Z,100909.38
2022-08-12T18:16:03.862Z,100914.38
2022-08-12T18:18:44.977Z,100927.66
2022-08-12T18:22:01.067Z,100906.13
2022-08-12T18:24:39.347Z,100916.63
2022-08-12T18:27:30.146Z,100926.41
2022-08-12T18:30:29.977Z,100950.84
2022-08-12T18:33:15.377Z,100954.22
2022-08-12T18:36:00.807Z,100929.97
2022-08-12T18:38:51.312Z,100937.34
2022-08-12T18:41:38.949Z,100949.25
2022-08-12T18:44:25.985Z,100943.69
2022-08-12T18:47:13.515Z,100949.06
2022-08-12T18:49:59.054Z,100960.41
2022-08-12T18:52:48.428Z,100952.59
2022-08-12T18:55:37.448Z,100943.03
2022-08-12T18:58:24.685Z,100953.09
2022-08-12T19:02:18.939Z,100968.19
2022-08-12T19:04:22.413Z,101040.13
2022-08-12T19:07:20.726Z,101050.81
2022-08-12T19:10:08.049Z,101024.66
2022-08-12T19:12:57.180Z,101059.56
2022-08-12T19:15:43.453Z,101046.88
2022-08-12T19:18:31.395Z,101025.28
2022-08-12T19:21:20.440Z,101049.97
2022-08-12T19:24:06.008Z,101070.91
2022-08-12T19:26:57.353Z,101053.03
2022-08-12T19:29:44.280Z,101050.22
2022-08-12T19:32:31.491Z,101060.53
2022-08-12T19:38:21.797Z,101065.47
2022-08-12T19:41:14.546Z,101066.69
2022-08-12T19:44:18.640Z,101084.81
2022-08-12T19:47:06.312Z,101056.94
2022-08-12T19:49:55.104Z,101065.50
2022-08-12T19:52:41.704Z,101069.47
2022-08-12T19:55:28.732Z,101064.59
2022-08-12T19:58:19.059Z,101082.88
2022-08-12T20:01:05.202Z,101060.00
2022-08-12T20:03:57.608Z,101053.72
2022-08-12T20:06:51.321Z,101079.28
2022-08-12T20:09:39.778Z,101110.53
2022-08-12T20:12:31.862Z,101061.34
2022-08-12T20:15:17.739Z,101089.09
2022-08-12T20:18:03.047Z,101099.81
2022-08-12T20:20:48.067Z,101080.72
2022-08-12T20:23:37.085Z,101097.78
2022-08-12T20:26:36.324Z,101067.50
2022-08-12T20:29:22.659Z,101059.56
2022-08-12T20:32:09.454Z,101056.94
2022-08-12T20:34:54.751Z,101057.03
2022-08-12T20:38:04.918Z,101064.25
2022-08-12T20:40:47.964Z,101062.78
2022-08-12T20:43:33.893Z,101036.13
2022-08-12T20:46:20.163Z,101015.69
2022-08-12T20:49:11.630Z,101028.16
2022-08-12T20:52:01.633Z,100991.66
2022-08-12T20:54:46.977Z,101021.59
2022-08-12T20:57:38.292Z,101059.72
2022-08-12T21:00:28.474Z,101033.25
2022-08-12T21:03:14.000Z,101049.84
2022-08-12T21:06:12.156Z,101012.00
2022-08-12T21:08:58.307Z,101022.59
2022-08-12T21:11:43.665Z,101035.78
2022-08-12T21:14:39.979Z,101006.81
2022-08-12T21:18:09.406Z,101049.34
2022-08-12T21:20:41.883Z,101044.91
2022-08-12T21:23:31.017Z,101053.78
2022-08-12T21:26:22.128Z,101044.09
2022-08-12T21:29:08.917Z,101038.16
2022-08-12T21:32:47.062Z,101067.34
2022-08-12T21:34:59.469Z,101046.00
2022-08-12T21:37:53.356Z,101042.59
2022-08-12T21:40:51.776Z,101026.25
2022-08-12T21:43:44.936Z,101020.34
2022-08-12T21:46:35.656Z,101032.47
2022-08-12T21:49:53.641Z,101035.38
2022-08-12T21:52:33.917Z,101020.97
2022-08-12T21:55:20.517Z,101063.69
2022-08-12T21:58:16.792Z,101046.78
2022-08-12T22:01:03.680Z,101047.59
2022-08-12T22:04:11.012Z,101062.91
2022-08-12T22:06:59.256Z,101055.03
2022-08-12T22:09:44.534Z,101047.06
2022-08-12T22:12:30.909Z,101061.28
2022-08-12T22:15:21.858Z,101060.50
2022-08-12T22:18:07.354Z,101053.66
2022-08-12T22:20:55.123Z,101077.84
2022-08-12T22:23:51.837Z,101042.50
2022-08-12T22:26:47.383Z,101041.97
2022-08-12T22:29:32.661Z,101036.59
2022-08-12T22:32:19.267Z,101039.97
2022-08-12T22:35:08.029Z,101056.09
2022-08-12T22:37:55.746Z,101040.06
2022-08-12T22:40:53.640Z,101058.00
2022-08-12T22:44:00.897Z,101064.03
2022-08-12T22:46:52.530Z,101051.66
2022-08-12T22:49:53.141Z,101037.81
2022-08-12T22:52:42.207Z,101081.31
2022-08-12T22:55:58.916Z,101059.25
2022-08-12T22:58:33.392Z,101058.44
2022-08-12T23:01:21.556Z,101047.22
2022-08-12T23:04:28.407Z,101043.63
2022-08-12T23:07:13.828Z,101042.00
2022-08-12T23:09:58.757Z,101049.16
2022-08-12T23:12:49.273Z,101078.41
2022-08-12T23:15:34.404Z,101055.47
2022-08-12T23:18:20.812Z,101060.75
2022-08-12T23:21:06.840Z,101044.19
2022-08-12T23:24:10.513Z,101055.75
2022-08-12T23:26:57.188Z,101110.41
2022-08-12T23:29:43.320Z,101117.75
2022-08-12T23:32:36.051Z,101078.25
2022-08-12T23:35:22.656Z,101088.22
2022-08-12T23:38:07.932Z,101075.41
2022-08-12T23:40:56.490Z,101092.44
2022-08-12T23:43:46.719Z,101079.63
2022-08-12T23:46:35.249Z,101092.28
2022-08-12T23:49:55.379Z,101102.13
2022-08-12T23:52:33.875Z,101097.31
2022-08-12T23:55:25.184Z,101091.44
2022-08-12T23:58:20.919Z,101098.09
